sensor_id;sensor_type;location;lat;lon;timestamp;pressure;altitude;pressure_sealevel;temperature;humidity
75414;BME280;64758;52.122;5.404;2023-04-28T00:01:36;101636.75;;;9.08;59.99
75414;BME280;64758;52.122;5.404;2023-04-28T00:04:03;101632.59;;;9.06;61.62
75414;BME280;64758;52.122;5.404;2023-04-28T00:06:29;101644.69;;;9.08;61.44
75414;BME280;64758;52.122;5.404;2023-04-28T00:08:56;101647.34;;;9.08;60.73
75414;BME280;64758;52.122;5.404;2023-04-28T00:11:22;101644.69;;;9.08;61.28
75414;BME280;64758;52.122;5.404;2023-04-28T00:13:49;101615.34;;;9.02;61.93
75414;BME280;64758;52.122;5.404;2023-04-28T00:16:15;101611.88;;;9.01;61.43
75414;BME280;64758;52.122;5.404;2023-04-28T00:18:42;101615.66;;;8.99;62.06
75414;BME280;64758;52.122;5.404;2023-04-28T00:21:09;101608.06;;;9.04;62.83
75414;BME280;64758;52.122;5.404;2023-04-28T00:23:36;101604.75;;;9.02;61.40
75414;BME280;64758;52.122;5.404;2023-04-28T00:26:02;101591.97;;;8.97;61.56
75414;BME280;64758;52.122;5.404;2023-04-28T00:28:29;101589.47;;;8.96;61.34
75414;BME280;64758;52.122;5.404;2023-04-28T00:31:00;101593.94;;;8.95;61.72
75414;BME280;64758;52.122;5.404;2023-04-28T00:33:27;101583.34;;;8.95;61.92
75414;BME280;64758;52.122;5.404;2023-04-28T00:36:00;101577.22;;;8.95;61.22
75414;BME280;64758;52.122;5.404;2023-04-28T00:38:27;101573.75;;;8.94;61.72
75414;BME280;64758;52.122;5.404;2023-04-28T00:40:53;101574.41;;;8.96;60.96
75414;BME280;64758;52.122;5.404;2023-04-28T00:43:20;101567.78;;;8.92;60.87
75414;BME280;64758;52.122;5.404;2023-04-28T00:45:49;101573.56;;;8.96;61.12
75414;BME280;64758;52.122;5.404;2023-04-28T00:48:17;101578.56;;;8.99;62.31
75414;BME280;64758;52.122;5.404;2023-04-28T00:50:44;101581.06;;;9.00;61.89
75414;BME280;64758;52.122;5.404;2023-04-28T00:53:12;101569.94;;;8.97;62.21
75414;BME280;64758;52.122;5.404;2023-04-28T00:55:39;101567.47;;;8.95;63.01
75414;BME280;64758;52.122;5.404;2023-04-28T00:58:07;101562.66;;;8.91;63.78
75414;BME280;64758;52.122;5.404;2023-04-28T01:00:34;101563.16;;;8.94;62.99
75414;BME280;64758;52.122;5.404;2023-04-28T01:03:00;101559.00;;;8.92;62.84
75414;BME280;64758;52.122;5.404;2023-04-28T01:05:28;101552.69;;;8.93;61.98
75414;BME280;64758;52.122;5.404;2023-04-28T01:07:55;101534.94;;;8.85;62.42
75414;BME280;64758;52.122;5.404;2023-04-28T01:10:22;101547.06;;;8.88;62.26
75414;BME280;64758;52.122;5.404;2023-04-28T01:12:48;101542.09;;;8.85;62.11
75414;BME280;64758;52.122;5.404;2023-04-28T01:15:16;101548.72;;;8.89;64.08
75414;BME280;64758;52.122;5.404;2023-04-28T01:17:44;101547.06;;;8.88;63.66
75414;BME280;64758;52.122;5.404;2023-04-28T01:20:12;101554.03;;;8.89;63.01
75414;BME280;64758;52.122;5.404;2023-04-28T01:22:39;101544.72;;;8.85;63.42
75414;BME280;64758;52.122;5.404;2023-04-28T01:25:06;101540.25;;;8.85;63.61
75414;BME280;64758;52.122;5.404;2023-04-28T01:27:33;101546.41;;;8.86;62.78
75414;BME280;64758;52.122;5.404;2023-04-28T01:29:59;101534.44;;;8.82;62.90
75414;BME280;64758;52.122;5.404;2023-04-28T01:32:26;101529.97;;;8.82;62.47
75414;BME280;64758;52.122;5.404;2023-04-28T01:34:52;101525.16;;;8.78;61.91
75414;BME280;64758;52.122;5.404;2023-04-28T01:37:19;101524.19;;;8.79;62.65
75414;BME280;64758;52.122;5.404;2023-04-28T01:39:45;101520.84;;;8.77;61.80
75414;BME280;64758;52.122;5.404;2023-04-28T01:42:12;101521.53;;;8.79;62.96
75414;BME280;64758;52.122;5.404;2023-04-28T01:44:38;101513.91;;;8.76;62.61
75414;BME280;64758;52.122;5.404;2023-04-28T01:47:06;101518.03;;;8.79;63.04
75414;BME280;64758;52.122;5.404;2023-04-28T01:49:32;101514.03;;;8.75;62.68
75414;BME280;64758;52.122;5.404;2023-04-28T01:51:59;101496.66;;;8.72;62.98
75414;BME280;64758;52.122;5.404;2023-04-28T01:54:26;101486.69;;;8.66;62.85
75414;BME280;64758;52.122;5.404;2023-04-28T01:56:53;101491.16;;;8.66;62.55
75414;BME280;64758;52.122;5.404;2023-04-28T01:59:19;101502.59;;;8.66;63.37
75414;BME280;64758;52.122;5.404;2023-04-28T02:01:46;101502.91;;;8.63;63.53
75414;BME280;64758;52.122;5.404;2023-04-28T02:04:12;101499.56;;;8.61;62.69
75414;BME280;64758;52.122;5.404;2023-04-28T02:06:39;101496.44;;;8.66;62.91
75414;BME280;64758;52.122;5.404;2023-04-28T02:09:06;101493.97;;;8.64;63.34
75414;BME280;64758;52.122;5.404;2023-04-28T02:11:32;101490.03;;;8.68;63.22
75414;BME280;64758;52.122;5.404;2023-04-28T02:13:59;101490.16;;;8.67;63.15
75414;BME280;64758;52.122;5.404;2023-04-28T02:16:25;101489.34;;;8.66;63.32
75414;BME280;64758;52.122;5.404;2023-04-28T02:18:52;101486.69;;;8.66;63.09
75414;BME280;64758;52.122;5.404;2023-04-28T02:21:19;101476.56;;;8.62;62.98
75414;BME280;64758;52.122;5.404;2023-04-28T02:23:45;101477.25;;;8.64;63.24
75414;BME280;64758;52.122;5.404;2023-04-28T02:26:12;101468.94;;;8.59;62.95
75414;BME280;64758;52.122;5.404;2023-04-28T02:28:38;101475.88;;;8.60;63.04
75414;BME280;64758;52.122;5.404;2023-04-28T02:31:06;101459.34;;;8.58;62.72
75414;BME280;64758;52.122;5.404;2023-04-28T02:33:33;101456.19;;;8.54;63.20
75414;BME280;64758;52.122;5.404;2023-04-28T02:36:04;101459.81;;;8.53;63.22
75414;BME280;64758;52.122;5.404;2023-04-28T02:38:30;101459.19;;;8.59;63.41
75414;BME280;64758;52.122;5.404;2023-04-28T02:41:02;101449.41;;;8.60;64.10
75414;BME280;64758;52.122;5.404;2023-04-28T02:43:30;101446.75;;;8.60;63.01
75414;BME280;64758;52.122;5.404;2023-04-28T02:45:57;101449.59;;;8.58;63.69
75414;BME280;64758;52.122;5.404;2023-04-28T02:48:24;101441.13;;;8.55;63.57
75414;BME280;64758;52.122;5.404;2023-04-28T02:50:51;101449.72;;;8.57;63.16
75414;BME280;64758;52.122;5.404;2023-04-28T02:53:19;101441.66;;;8.58;63.65
75414;BME280;64758;52.122;5.404;2023-04-28T02:55:46;101428.72;;;8.55;63.80
75414;BME280;64758;52.122;5.404;2023-04-28T02:58:12;101426.75;;;8.57;64.15
75414;BME280;64758;52.122;5.404;2023-04-28T03:00:39;101411.31;;;8.53;63.93
75414;BME280;64758;52.122;5.404;2023-04-28T03:03:05;101411.50;;;8.51;63.87
75414;BME280;64758;52.122;5.404;2023-04-28T03:05:32;101408.19;;;8.49;64.28
75414;BME280;64758;52.122;5.404;2023-04-28T03:07:59;101420.09;;;8.53;64.29
75414;BME280;64758;52.122;5.404;2023-04-28T03:10:25;101402.88;;;8.49;63.87
75414;BME280;64758;52.122;5.404;2023-04-28T03:12:52;101407.88;;;8.52;64.02
75414;BME280;64758;52.122;5.404;2023-04-28T03:15:18;101403.56;;;8.51;64.95
75414;BME280;64758;52.122;5.404;2023-04-28T03:17:45;101407.88;;;8.52;64.80
75414;BME280;64758;52.122;5.404;2023-04-28T03:20:12;101394.63;;;8.52;64.95
75414;BME280;64758;52.122;5.404;2023-04-28T03:22:38;101392.97;;;8.51;66.14
75414;BME280;64758;52.122;5.404;2023-04-28T03:25:05;101396.59;;;8.50;65.17
75414;BME280;64758;52.122;5.404;2023-04-28T03:27:31;101392.97;;;8.51;65.29
75414;BME280;64758;52.122;5.404;2023-04-28T03:29:58;101386.81;;;8.51;65.23
75414;BME280;64758;52.122;5.404;2023-04-28T03:32:25;101392.28;;;8.49;64.98
75414;BME280;64758;52.122;5.404;2023-04-28T03:34:52;101382.69;;;8.48;65.63
75414;BME280;64758;52.122;5.404;2023-04-28T03:37:18;101378.38;;;8.47;65.37
75414;BME280;64758;52.122;5.404;2023-04-28T03:39:45;101370.13;;;8.50;65.60
75414;BME280;64758;52.122;5.404;2023-04-28T03:42:11;101369.59;;;8.47;65.42
75414;BME280;64758;52.122;5.404;2023-04-28T03:44:37;101370.59;;;8.46;65.62
75414;BME280;64758;52.122;5.404;2023-04-28T03:47:04;101365.81;;;8.49;66.28
75414;BME280;64758;52.122;5.404;2023-04-28T03:49:31;101373.13;;;8.55;66.10
75414;BME280;64758;52.122;5.404;2023-04-28T03:51:57;101370.47;;;8.55;66.21
75414;BME280;64758;52.122;5.404;2023-04-28T03:54:24;101374.94;;;8.55;66.69
75414;BME280;64758;52.122;5.404;2023-04-28T03:56:50;101367.66;;;8.57;66.48
75414;BME280;64758;52.122;5.404;2023-04-28T03:59:17;101366.84;;;8.56;66.37
75414;BME280;64758;52.122;5.404;2023-04-28T04:01:43;101365.53;;;8.60;66.80
75414;BME280;64758;52.122;5.404;2023-04-28T04:04:10;101362.72;;;8.62;67.16
75414;BME280;64758;52.122;5.404;2023-04-28T04:06:36;101348.66;;;8.61;66.85
75414;BME280;64758;52.122;5.404;2023-04-28T04:09:03;101336.06;;;8.55;67.54
75414;BME280;64758;52.122;5.404;2023-04-28T04:11:30;101351.63;;;8.58;68.06
75414;BME280;64758;52.122;5.404;2023-04-28T04:13:56;101347.00;;;8.60;67.98
75414;BME280;64758;52.122;5.404;2023-04-28T04:16:23;101338.88;;;8.62;68.37
75414;BME280;64758;52.122;5.404;2023-04-28T04:18:49;101331.09;;;8.60;67.20
75414;BME280;64758;52.122;5.404;2023-04-28T04:21:17;101329.91;;;8.55;68.23
75414;BME280;64758;52.122;5.404;2023-04-28T04:23:43;101327.44;;;8.53;68.03
75414;BME280;64758;52.122;5.404;2023-04-28T04:26:10;101328.78;;;8.57;68.61
75414;BME280;64758;52.122;5.404;2023-04-28T04:28:36;101337.41;;;8.59;69.78
75414;BME280;64758;52.122;5.404;2023-04-28T04:31:03;101332.75;;;8.61;69.52
75414;BME280;64758;52.122;5.404;2023-04-28T04:33:29;101325.81;;;8.60;69.21
75414;BME280;64758;52.122;5.404;2023-04-28T04:35:56;101316.88;;;8.61;69.35
75414;BME280;64758;52.122;5.404;2023-04-28T04:38:23;101325.84;;;8.68;69.13
75414;BME280;64758;52.122;5.404;2023-04-28T04:40:49;101304.97;;;8.65;69.50
75414;BME280;64758;52.122;5.404;2023-04-28T04:43:16;101302.47;;;8.64;68.79
75414;BME280;64758;52.122;5.404;2023-04-28T04:45:42;101305.47;;;8.69;69.18
75414;BME280;64758;52.122;5.404;2023-04-28T04:48:09;101314.59;;;8.74;69.50
75414;BME280;64758;52.122;5.404;2023-04-28T04:50:36;101308.13;;;8.77;69.42
75414;BME280;64758;52.122;5.404;2023-04-28T04:53:03;101307.00;;;8.79;69.51
75414;BME280;64758;52.122;5.404;2023-04-28T04:55:30;101313.75;;;8.82;69.31
75414;BME280;64758;52.122;5.404;2023-04-28T04:57:56;101299.84;;;8.80;69.17
75414;BME280;64758;52.122;5.404;2023-04-28T05:00:23;101298.53;;;8.83;69.76
75414;BME280;64758;52.122;5.404;2023-04-28T05:02:50;101279.84;;;8.85;69.22
75414;BME280;64758;52.122;5.404;2023-04-28T05:05:16;101284.47;;;8.83;69.49
75414;BME280;64758;52.122;5.404;2023-04-28T05:07:48;101283.16;;;8.87;69.86
75414;BME280;64758;52.122;5.404;2023-04-28T05:10:14;101277.03;;;8.86;69.31
75414;BME280;64758;52.122;5.404;2023-04-28T05:12:41;101295.09;;;8.91;68.96
75414;BME280;64758;52.122;5.404;2023-04-28T05:15:12;101279.19;;;8.91;69.69
75414;BME280;64758;52.122;5.404;2023-04-28T05:17:39;101292.44;;;8.91;69.60
75414;BME280;64758;52.122;5.404;2023-04-28T05:20:06;101278.53;;;8.89;68.97
75414;BME280;64758;52.122;5.404;2023-04-28T05:22:33;101291.78;;;8.89;69.37
75414;BME280;64758;52.122;5.404;2023-04-28T05:24:59;101276.22;;;8.86;69.41
75414;BME280;64758;52.122;5.404;2023-04-28T05:27:26;101281.66;;;8.92;70.51
75414;BME280;64758;52.122;5.404;2023-04-28T05:29:52;101288.63;;;8.93;70.88
75414;BME280;64758;52.122;5.404;2023-04-28T05:32:19;101292.75;;;8.96;71.19
75414;BME280;64758;52.122;5.404;2023-04-28T05:34:46;101297.75;;;8.91;71.14
75414;BME280;64758;52.122;5.404;2023-04-28T05:37:13;101288.94;;;8.90;72.35
75414;BME280;64758;52.122;5.404;2023-04-28T05:39:39;101293.91;;;8.93;72.84
75414;BME280;64758;52.122;5.404;2023-04-28T05:42:06;101306.84;;;8.96;75.27
75414;BME280;64758;52.122;5.404;2023-04-28T05:44:32;101297.38;;;8.94;75.08
75414;BME280;64758;52.122;5.404;2023-04-28T05:46:59;101295.56;;;8.94;77.20
75414;BME280;64758;52.122;5.404;2023-04-28T05:49:25;101294.09;;;8.84;77.75
75414;BME280;64758;52.122;5.404;2023-04-28T05:51:52;101299.38;;;8.76;78.61
75414;BME280;64758;52.122;5.404;2023-04-28T05:54:18;101294.88;;;8.77;79.22
75414;BME280;64758;52.122;5.404;2023-04-28T05:56:45;101292.56;;;8.74;80.29
75414;BME280;64758;52.122;5.404;2023-04-28T05:59:11;101295.53;;;8.71;80.54
75414;BME280;64758;52.122;5.404;2023-04-28T06:01:38;101300.69;;;8.72;82.03
75414;BME280;64758;52.122;5.404;2023-04-28T06:04:04;101307.31;;;8.76;83.23
75414;BME280;64758;52.122;5.404;2023-04-28T06:06:31;101301.84;;;8.78;84.37
75414;BME280;64758;52.122;5.404;2023-04-28T06:08:59;101307.00;;;8.79;83.91
75414;BME280;64758;52.122;5.404;2023-04-28T06:11:25;101302.34;;;8.81;83.35
75414;BME280;64758;52.122;5.404;2023-04-28T06:13:52;101291.44;;;8.76;83.14
75414;BME280;64758;52.122;5.404;2023-04-28T06:16:19;101273.56;;;8.78;83.88
75414;BME280;64758;52.122;5.404;2023-04-28T06:18:45;101277.19;;;8.85;85.64
75414;BME280;64758;52.122;5.404;2023-04-28T06:21:16;101270.59;;;8.89;84.83
75414;BME280;64758;52.122;5.404;2023-04-28T06:23:42;101268.56;;;8.99;84.71
75414;BME280;64758;52.122;5.404;2023-04-28T06:26:09;101253.00;;;9.04;84.62
75414;BME280;64758;52.122;5.404;2023-04-28T06:28:36;101260.13;;;9.11;84.19
75414;BME280;64758;52.122;5.404;2023-04-28T06:31:02;101251.34;;;9.19;84.21
75414;BME280;64758;52.122;5.404;2023-04-28T06:33:29;101258.94;;;9.30;84.75
75414;BME280;64758;52.122;5.404;2023-04-28T06:35:55;101264.56;;;9.35;84.75
75414;BME280;64758;52.122;5.404;2023-04-28T06:38:22;101259.13;;;9.36;84.48
75414;BME280;64758;52.122;5.404;2023-04-28T06:40:48;101264.75;;;9.41;83.99
75414;BME280;64758;52.122;5.404;2023-04-28T06:43:15;101257.13;;;9.46;85.53
75414;BME280;64758;52.122;5.404;2023-04-28T06:45:41;101256.25;;;9.54;86.54
75414;BME280;64758;52.122;5.404;2023-04-28T06:48:08;101258.41;;;9.58;87.03
75414;BME280;64758;52.122;5.404;2023-04-28T06:50:36;101271.47;;;9.68;88.23
75414;BME280;64758;52.122;5.404;2023-04-28T06:53:02;101261.53;;;9.70;87.85
75414;BME280;64758;52.122;5.404;2023-04-28T06:55:29;101248.56;;;9.75;88.72
75414;BME280;64758;52.122;5.404;2023-04-28T06:57:55;101250.91;;;9.70;88.55
75414;BME280;64758;52.122;5.404;2023-04-28T07:00:22;101248.25;;;9.70;88.87
75414;BME280;64758;52.122;5.404;2023-04-28T07:02:48;101248.22;;;9.78;90.75
75414;BME280;64758;52.122;5.404;2023-04-28T07:05:15;101232.81;;;9.81;90.26
75414;BME280;64758;52.122;5.404;2023-04-28T07:07:42;101233.44;;;9.91;91.32
75414;BME280;64758;52.122;5.404;2023-04-28T07:10:09;101233.25;;;10.01;91.49
75414;BME280;64758;52.122;5.404;2023-04-28T07:12:36;101241.19;;;10.09;91.87
75414;BME280;64758;52.122;5.404;2023-04-28T07:15:03;101237.69;;;10.16;91.35
75414;BME280;64758;52.122;5.404;2023-04-28T07:17:30;101237.13;;;10.20;91.30
75414;BME280;64758;52.122;5.404;2023-04-28T07:19:56;101240.41;;;10.30;91.55
75414;BME280;64758;52.122;5.404;2023-04-28T07:22:23;101247.47;;;10.38;91.66
75414;BME280;64758;52.122;5.404;2023-04-28T07:24:51;101239.34;;;10.39;91.49
75414;BME280;64758;52.122;5.404;2023-04-28T07:27:17;101244.56;;;10.55;91.47
75414;BME280;64758;52.122;5.404;2023-04-28T07:29:44;101241.84;;;10.63;92.34
75414;BME280;64758;52.122;5.404;2023-04-28T07:32:10;101240.25;;;10.77;91.50
75414;BME280;64758;52.122;5.404;2023-04-28T07:34:37;101237.53;;;10.85;91.32
75414;BME280;64758;52.122;5.404;2023-04-28T07:37:04;101242.06;;;10.99;91.18
75414;BME280;64758;52.122;5.404;2023-04-28T07:39:32;101237.34;;;11.09;91.76
75414;BME280;64758;52.122;5.404;2023-04-28T07:42:01;101244.34;;;11.24;91.31
75414;BME280;64758;52.122;5.404;2023-04-28T07:44:28;101240.13;;;11.30;90.32
75414;BME280;64758;52.122;5.404;2023-04-28T07:46:55;101231.53;;;11.42;90.44
75414;BME280;64758;52.122;5.404;2023-04-28T07:49:22;101233.09;;;11.51;89.06
75414;BME280;64758;52.122;5.404;2023-04-28T07:51:48;101223.41;;;11.58;89.78
75414;BME280;64758;52.122;5.404;2023-04-28T07:54:17;101228.91;;;11.71;89.55
75414;BME280;64758;52.122;5.404;2023-04-28T07:56:44;101219.19;;;11.78;89.21
75414;BME280;64758;52.122;5.404;2023-04-28T07:59:11;101223.03;;;11.90;88.61
75414;BME280;64758;52.122;5.404;2023-04-28T08:01:37;101232.94;;;11.96;88.57
75414;BME280;64758;52.122;5.404;2023-04-28T08:04:04;101218.22;;;12.00;88.50
75414;BME280;64758;52.122;5.404;2023-04-28T08:06:31;101219.16;;;12.07;88.46
75414;BME280;64758;52.122;5.404;2023-04-28T08:08:59;101215.84;;;12.05;87.55
75414;BME280;64758;52.122;5.404;2023-04-28T08:11:27;101203.28;;;11.99;87.89
75414;BME280;64758;52.122;5.404;2023-04-28T08:13:53;101202.63;;;11.97;88.97
75414;BME280;64758;52.122;5.404;2023-04-28T08:16:22;101208.88;;;12.04;89.42
75414;BME280;64758;52.122;5.404;2023-04-28T08:18:49;101210.78;;;12.10;89.69
75414;BME280;64758;52.122;5.404;2023-04-28T08:21:15;101225.75;;;12.11;88.76
75414;BME280;64758;52.122;5.404;2023-04-28T08:23:42;101226.69;;;12.03;89.39
75414;BME280;64758;52.122;5.404;2023-04-28T08:26:08;101223.03;;;12.04;90.62
75414;BME280;64758;52.122;5.404;2023-04-28T08:28:35;101220.72;;;12.01;91.23
75414;BME280;64758;52.122;5.404;2023-04-28T08:31:02;101232.03;;;12.03;91.49
75414;BME280;64758;52.122;5.404;2023-04-28T08:33:30;101222.56;;;12.01;92.14
75414;BME280;64758;52.122;5.404;2023-04-28T08:35:57;101215.31;;;11.95;91.58
75414;BME280;64758;52.122;5.404;2023-04-28T08:38:23;101212.19;;;11.91;91.99
75414;BME280;64758;52.122;5.404;2023-04-28T08:40:50;101209.34;;;11.93;92.55
75414;BME280;64758;52.122;5.404;2023-04-28T08:43:18;101216.09;;;12.10;93.76
75414;BME280;64758;52.122;5.404;2023-04-28T08:45:46;101215.25;;;12.24;94.64
75414;BME280;64758;52.122;5.404;2023-04-28T08:48:18;101214.38;;;12.38;95.58
75414;BME280;64758;52.122;5.404;2023-04-28T08:50:50;101221.50;;;12.52;94.83
75414;BME280;64758;52.122;5.404;2023-04-28T08:53:24;101222.41;;;12.59;93.94
75414;BME280;64758;52.122;5.404;2023-04-28T08:55:56;101208.97;;;12.67;94.71
75414;BME280;64758;52.122;5.404;2023-04-28T08:58:24;101214.53;;;12.71;94.56
75414;BME280;64758;52.122;5.404;2023-04-28T09:00:52;101215.31;;;12.66;94.04
75414;BME280;64758;52.122;5.404;2023-04-28T09:03:19;101207.03;;;12.61;95.07
75414;BME280;64758;52.122;5.404;2023-04-28T09:05:46;101216.94;;;12.67;94.91
75414;BME280;64758;52.122;5.404;2023-04-28T09:08:13;101207.69;;;12.63;95.36
75414;BME280;64758;52.122;5.404;2023-04-28T09:10:40;101217.78;;;12.67;95.12
75414;BME280;64758;52.122;5.404;2023-04-28T09:13:06;101202.56;;;12.61;95.46
75414;BME280;64758;52.122;5.404;2023-04-28T09:15:35;101207.31;;;12.66;96.46
75414;BME280;64758;52.122;5.404;2023-04-28T09:18:04;101199.31;;;12.66;96.61
75414;BME280;64758;52.122;5.404;2023-04-28T09:20:33;101191.53;;;12.64;96.44
75414;BME280;64758;52.122;5.404;2023-04-28T09:23:13;101204.00;;;12.64;96.61
75414;BME280;64758;52.122;5.404;2023-04-28T09:25:40;101195.13;;;12.57;96.70
75414;BME280;64758;52.122;5.404;2023-04-28T09:28:20;101194.47;;;12.55;97.32
75414;BME280;64758;52.122;5.404;2023-04-28T09:30:47;101201.72;;;12.61;97.40
75414;BME280;64758;52.122;5.404;2023-04-28T09:33:13;101197.78;;;12.57;97.02
75414;BME280;64758;52.122;5.404;2023-04-28T09:35:42;101207.69;;;12.63;97.47
75414;BME280;64758;52.122;5.404;2023-04-28T09:38:10;101201.09;;;12.59;97.00
75414;BME280;64758;52.122;5.404;2023-04-28T09:40:57;101200.06;;;12.60;97.95
75414;BME280;64758;52.122;5.404;2023-04-28T09:43:28;101197.28;;;12.68;98.32
75414;BME280;64758;52.122;5.404;2023-04-28T09:45:57;101199.19;;;12.73;98.48
75414;BME280;64758;52.122;5.404;2023-04-28T09:50:54;101192.69;;;12.82;98.22
75414;BME280;64758;52.122;5.404;2023-04-28T09:53:28;101177.91;;;12.80;99.76
75414;BME280;64758;52.122;5.404;2023-04-28T09:55:56;101191.47;;;12.85;100.00
75414;BME280;64758;52.122;5.404;2023-04-28T09:58:24;101185.22;;;12.92;100.00
75414;BME280;64758;52.122;5.404;2023-04-28T10:00:53;101180.94;;;12.98;100.00
75414;BME280;64758;52.122;5.404;2023-04-28T10:03:22;101185.66;;;12.96;100.00
75414;BME280;64758;52.122;5.404;2023-04-28T10:05:52;101179.91;;;12.92;100.00
75414;BME280;64758;52.122;5.404;2023-04-28T10:08:20;101181.06;;;12.90;100.00
75414;BME280;64758;52.122;5.404;2023-04-28T10:10:51;101186.03;;;12.93;100.00
75414;BME280;64758;52.122;5.404;2023-04-28T10:13:20;101175.72;;;12.90;100.00
75414;BME280;64758;52.122;5.404;2023-04-28T10:15:48;101180.25;;;12.89;100.00
75414;BME280;64758;52.122;5.404;2023-04-28T10:18:15;101182.81;;;12.97;100.00
75414;BME280;64758;52.122;5.404;2023-04-28T10:20:47;101179.75;;;13.00;100.00
75414;BME280;64758;52.122;5.404;2023-04-28T10:25:57;101187.38;;;13.03;100.00
75414;BME280;64758;52.122;5.404;2023-04-28T10:28:28;101193.72;;;13.02;100.00
75414;BME280;64758;52.122;5.404;2023-04-28T10:31:15;101185.72;;;13.02;100.00
75414;BME280;64758;52.122;5.404;2023-04-28T10:33:43;101184.50;;;13.05;100.00
75414;BME280;64758;52.122;5.404;2023-04-28T10:36:10;101190.59;;;12.99;100.00
75414;BME280;64758;52.122;5.404;2023-04-28T10:39:09;101184.88;;;13.02;100.00
75414;BME280;64758;52.122;5.404;2023-04-28T10:41:36;101188.53;;;12.94;100.00
75414;BME280;64758;52.122;5.404;2023-04-28T10:47:06;101184.88;;;13.02;100.00
75414;BME280;64758;52.122;5.404;2023-04-28T11:00:43;101190.81;;;13.25;100.00
75414;BME280;64758;52.122;5.404;2023-04-28T11:06:24;101189.84;;;13.32;100.00
75414;BME280;64758;52.122;5.404;2023-04-28T11:08:53;101183.53;;;13.40;100.00
75414;BME280;64758;52.122;5.404;2023-04-28T11:11:22;101180.66;;;13.41;100.00
75414;BME280;64758;52.122;5.404;2023-04-28T11:13:52;101187.22;;;13.39;100.00
75414;BME280;64758;52.122;5.404;2023-04-28T11:16:22;101187.66;;;13.42;100.00
75414;BME280;64758;52.122;5.404;2023-04-28T11:18:59;101188.47;;;13.43;100.00
75414;BME280;64758;52.122;5.404;2023-04-28T11:21:31;101191.34;;;13.41;100.00
75414;BME280;64758;52.122;5.404;2023-04-28T11:23:58;101180.47;;;13.43;100.00
75414;BME280;64758;52.122;5.404;2023-04-28T11:26:26;101177.22;;;13.47;100.00
75414;BME280;64758;52.122;5.404;2023-04-28T11:28:54;101173.91;;;13.45;100.00
75414;BME280;64758;52.122;5.404;2023-04-28T11:31:23;101174.16;;;13.50;100.00
75414;BME280;64758;52.122;5.404;2023-04-28T11:36:27;101174.91;;;13.78;100.00
75414;BME280;64758;52.122;5.404;2023-04-28T11:38:55;101169.38;;;13.80;100.00
75414;BME280;64758;52.122;5.404;2023-04-28T11:41:22;101178.22;;;13.87;100.00
75414;BME280;64758;52.122;5.404;2023-04-28T11:43:49;101173.09;;;13.85;100.00
75414;BME280;64758;52.122;5.404;2023-04-28T11:46:18;101170.22;;;13.80;100.00
75414;BME280;64758;52.122;5.404;2023-04-28T11:48:45;101169.97;;;13.75;100.00
75414;BME280;64758;52.122;5.404;2023-04-28T11:51:31;101176.91;;;13.70;100.00
75414;BME280;64758;52.122;5.404;2023-04-28T11:53:58;101182.47;;;13.68;100.00
75414;BME280;64758;52.122;5.404;2023-04-28T11:56:26;101190.03;;;13.65;100.00
75414;BME280;64758;52.122;5.404;2023-04-28T11:59:05;101177.91;;;13.62;100.00
75414;BME280;64758;52.122;5.404;2023-04-28T12:01:34;101186.16;;;13.67;100.00
75414;BME280;64758;52.122;5.404;2023-04-28T12:04:09;101191.53;;;13.74;100.00
75414;BME280;64758;52.122;5.404;2023-04-28T12:06:36;101177.94;;;13.69;100.00
75414;BME280;64758;52.122;5.404;2023-04-28T12:09:14;101180.25;;;13.78;100.00
75414;BME280;64758;52.122;5.404;2023-04-28T12:11:59;101182.78;;;13.93;100.00
75414;BME280;64758;52.122;5.404;2023-04-28T12:14:28;101182.22;;;14.03;100.00
75414;BME280;64758;52.122;5.404;2023-04-28T12:16:55;101173.78;;;14.06;100.00
75414;BME280;64758;52.122;5.404;2023-04-28T12:19:22;101186.31;;;14.06;100.00
75414;BME280;64758;52.122;5.404;2023-04-28T12:22:00;101182.59;;;13.94;100.00
75414;BME280;64758;52.122;5.404;2023-04-28T12:24:28;101189.97;;;13.92;100.00
75414;BME280;64758;52.122;5.404;2023-04-28T12:27:12;101181.75;;;13.94;100.00
75414;BME280;64758;52.122;5.404;2023-04-28T12:29:41;101188.16;;;13.99;100.00
75414;BME280;64758;52.122;5.404;2023-04-28T12:32:09;101186.53;;;14.04;100.00
75414;BME280;64758;52.122;5.404;2023-04-28T12:34:37;101185.91;;;14.09;100.00
75414;BME280;64758;52.122;5.404;2023-04-28T12:37:05;101189.19;;;13.98;100.00
75414;BME280;64758;52.122;5.404;2023-04-28T12:39:33;101205.38;;;13.90;100.00
75414;BME280;64758;52.122;5.404;2023-04-28T12:42:03;101194.41;;;13.72;100.00
75414;BME280;64758;52.122;5.404;2023-04-28T12:44:34;101197.69;;;13.74;100.00
75414;BME280;64758;52.122;5.404;2023-04-28T12:47:05;101193.63;;;13.78;100.00
75414;BME280;64758;52.122;5.404;2023-04-28T12:49:35;101198.16;;;13.84;100.00
75414;BME280;64758;52.122;5.404;2023-04-28T12:52:03;101196.13;;;13.93;100.00
75414;BME280;64758;52.122;5.404;2023-04-28T12:54:30;101192.88;;;13.97;100.00
75414;BME280;64758;52.122;5.404;2023-04-28T12:56:56;101183.63;;;14.06;100.00
75414;BME280;64758;52.122;5.404;2023-04-28T12:59:23;101201.00;;;14.16;100.00
75414;BME280;64758;52.122;5.404;2023-04-28T13:01:50;101203.19;;;14.13;100.00
75414;BME280;64758;52.122;5.404;2023-04-28T13:04:17;101197.41;;;14.03;100.00
75414;BME280;64758;52.122;5.404;2023-04-28T13:06:44;101195.34;;;14.05;100.00
75414;BME280;64758;52.122;5.404;2023-04-28T13:09:11;101191.31;;;14.15;100.00
75414;BME280;64758;52.122;5.404;2023-04-28T13:11:38;101186.22;;;14.27;100.00
75414;BME280;64758;52.122;5.404;2023-04-28T13:14:05;101197.16;;;14.38;100.00
75414;BME280;64758;52.122;5.404;2023-04-28T13:16:32;101191.81;;;14.45;100.00
75414;BME280;64758;52.122;5.404;2023-04-28T13:18:59;101192.22;;;14.42;100.00
75414;BME280;64758;52.122;5.404;2023-04-28T13:21:26;101186.88;;;14.35;100.00